EJA242 KDFW-KATL
Flight info
| Callsign | EJA242 |
|---|---|
| Flight time | N/A |
| Altitude | 41000 |
| Route | TRYTN4 LOOSE MEMFS HUTCC KNSAW RUSSA GLAVN2 |
| Aircraft | CL60/M-SBDE1E2E3FGHIJ1J4J5J7M3RWXYZ/LB1V1D1 |
Departure
| Time | 2026-05-08 04:32 |
|---|---|
| Airport | Dallas Fort Worth International Airport (KDFW) |
Arrival
| Time | N/A |
|---|---|
| Airport | Hartsfield Jackson Atlanta International Airport (KATL) |
| Time | Latitude | Longitude | Altitude | Speed | Heading |
|---|---|---|---|---|---|
| 2026-05-08 04:02 | 32.91289 | -97.03592 | 579 ft | 0 kts | 222° |
| 2026-05-08 04:27 | 32.91284 | -97.03597 | 579 ft | 4 kts | 222° |
| 2026-05-08 04:27 | 32.91255 | -97.03625 | 580 ft | 6 kts | 202° |
| 2026-05-08 04:27 | 32.91207 | -97.03629 | 581 ft | 7 kts | 179° |
| 2026-05-08 04:28 | 32.91152 | -97.03622 | 582 ft | 8 kts | 143° |
| 2026-05-08 04:28 | 32.91143 | -97.03545 | 582 ft | 11 kts | 89° |
| 2026-05-08 04:28 | 32.91143 | -97.03443 | 582 ft | 13 kts | 90° |
| 2026-05-08 04:28 | 32.91145 | -97.03369 | 582 ft | 5 kts | 56° |
| 2026-05-08 04:29 | 32.91213 | -97.03359 | 581 ft | 12 kts | 358° |
| 2026-05-08 04:29 | 32.91316 | -97.03359 | 579 ft | 16 kts | 0° |
| 2026-05-08 04:29 | 32.91446 | -97.03358 | 576 ft | 20 kts | 358° |
| 2026-05-08 04:29 | 32.91553 | -97.03340 | 574 ft | 10 kts | 53° |
| 2026-05-08 04:30 | 32.91561 | -97.03236 | 572 ft | 14 kts | 94° |
| 2026-05-08 04:30 | 32.91559 | -97.03123 | 571 ft | 0 kts | 91° |
| 2026-05-08 04:30 | 32.91558 | -97.03065 | 570 ft | 10 kts | 91° |
| 2026-05-08 04:30 | 32.91524 | -97.02988 | 568 ft | 11 kts | 182° |
| 2026-05-08 04:31 | 32.91439 | -97.02985 | 569 ft | 12 kts | 172° |
| 2026-05-08 04:31 | 32.91338 | -97.02987 | 571 ft | 22 kts | 182° |
| 2026-05-08 04:31 | 32.90982 | -97.02994 | 572 ft | 72 kts | 180° |
| 2026-05-08 04:31 | 32.90218 | -97.02986 | 573 ft | 148 kts | 180° |
| 2026-05-08 04:32 | 32.89078 | -97.02958 | 1062 ft | 177 kts | 179° |
| 2026-05-08 04:32 | 32.87813 | -97.02964 | 1984 ft | 189 kts | 179° |
| 2026-05-08 04:32 | 32.86487 | -97.02992 | 2958 ft | 198 kts | 178° |
| 2026-05-08 04:32 | 32.85173 | -97.02856 | 4045 ft | 191 kts | 162° |
| 2026-05-08 04:33 | 32.83951 | -97.02309 | 4773 ft | 184 kts | 158° |
| 2026-05-08 04:33 | 32.82811 | -97.01746 | 5356 ft | 179 kts | 159° |
| 2026-05-08 04:33 | 32.81573 | -97.01142 | 6019 ft | 203 kts | 160° |
| 2026-05-08 04:33 | 32.80231 | -97.00498 | 6889 ft | 220 kts | 161° |
| 2026-05-08 04:34 | 32.78831 | -96.99667 | 7893 ft | 234 kts | 145° |
| 2026-05-08 04:34 | 32.77809 | -96.98141 | 8930 ft | 249 kts | 117° |
| 2026-05-08 04:34 | 32.77158 | -96.96166 | 9664 ft | 274 kts | 113° |
| 2026-05-08 04:34 | 32.76553 | -96.93861 | 9923 ft | 311 kts | 99° |
| 2026-05-08 04:35 | 32.76528 | -96.91254 | 9982 ft | 316 kts | 88° |
| 2026-05-08 04:35 | 32.76635 | -96.88636 | 9973 ft | 314 kts | 88° |
| 2026-05-08 04:35 | 32.76733 | -96.86037 | 9990 ft | 314 kts | 88° |
| 2026-05-08 04:35 | 32.76853 | -96.83446 | 9987 ft | 315 kts | 83° |
| 2026-05-08 04:36 | 32.77389 | -96.80912 | 9994 ft | 315 kts | 72° |
| 2026-05-08 04:36 | 32.78053 | -96.78423 | 10004 ft | 323 kts | 72° |
| 2026-05-08 04:36 | 32.78746 | -96.75787 | 10763 ft | 338 kts | 72° |
| 2026-05-08 04:36 | 32.79435 | -96.73158 | 12120 ft | 333 kts | 71° |
| 2026-05-08 04:37 | 32.80116 | -96.70554 | 13204 ft | 336 kts | 71° |
| 2026-05-08 04:37 | 32.80815 | -96.67876 | 14140 ft | 343 kts | 71° |
| 2026-05-08 04:37 | 32.81527 | -96.65143 | 15059 ft | 349 kts | 71° |
| 2026-05-08 04:37 | 32.82246 | -96.62378 | 15894 ft | 357 kts | 71° |
| 2026-05-08 04:38 | 32.82989 | -96.59512 | 16723 ft | 364 kts | 72° |
| 2026-05-08 04:38 | 32.83727 | -96.56661 | 17512 ft | 370 kts | 72° |
| 2026-05-08 04:38 | 32.84491 | -96.53706 | 18290 ft | 376 kts | 72° |
| 2026-05-08 04:38 | 32.85259 | -96.50729 | 19045 ft | 382 kts | 72° |
| 2026-05-08 04:39 | 32.86045 | -96.47676 | 19809 ft | 387 kts | 71° |
| 2026-05-08 04:39 | 32.86829 | -96.44630 | 20527 ft | 392 kts | 71° |
| 2026-05-08 04:39 | 32.87634 | -96.41496 | 21240 ft | 397 kts | 71° |
| 2026-05-08 04:39 | 32.88443 | -96.38341 | 21921 ft | 402 kts | 70° |
| 2026-05-08 04:40 | 32.89260 | -96.35156 | 22562 ft | 407 kts | 70° |
| 2026-05-08 04:40 | 32.90165 | -96.31964 | 23159 ft | 412 kts | 66° |
| 2026-05-08 04:40 | 32.91204 | -96.28769 | 23739 ft | 417 kts | 66° |
| 2026-05-08 04:40 | 32.92273 | -96.25489 | 24294 ft | 425 kts | 67° |
| 2026-05-08 04:41 | 32.93332 | -96.22236 | 24843 ft | 430 kts | 67° |
| 2026-05-08 04:41 | 32.94423 | -96.18874 | 25387 ft | 437 kts | 67° |
| 2026-05-08 04:41 | 32.95458 | -96.15681 | 25862 ft | 443 kts | 68° |
| 2026-05-08 04:41 | 32.96572 | -96.12241 | 26403 ft | 448 kts | 68° |
| 2026-05-08 04:42 | 32.97703 | -96.08743 | 26873 ft | 454 kts | 68° |
| 2026-05-08 04:42 | 32.98851 | -96.05190 | 27375 ft | 459 kts | 69° |
| 2026-05-08 04:42 | 32.99988 | -96.01664 | 27836 ft | 465 kts | 68° |
| 2026-05-08 04:42 | 33.01154 | -95.98047 | 28304 ft | 470 kts | 69° |
| 2026-05-08 04:43 | 33.02338 | -95.94365 | 28755 ft | 475 kts | 69° |
| 2026-05-08 04:43 | 33.03516 | -95.90702 | 29147 ft | 481 kts | 69° |
| 2026-05-08 04:43 | 33.04726 | -95.86935 | 29601 ft | 485 kts | 69° |
| 2026-05-08 04:43 | 33.05932 | -95.83173 | 30075 ft | 488 kts | 70° |
| 2026-05-08 04:44 | 33.07153 | -95.79374 | 30536 ft | 492 kts | 69° |
| 2026-05-08 04:44 | 33.08366 | -95.75596 | 31017 ft | 494 kts | 68° |
| 2026-05-08 04:44 | 33.09604 | -95.71737 | 31418 ft | 498 kts | 69° |
| 2026-05-08 04:44 | 33.10834 | -95.67897 | 31866 ft | 499 kts | 68° |
| 2026-05-08 04:45 | 33.12075 | -95.64017 | 32268 ft | 502 kts | 69° |
| 2026-05-08 04:45 | 33.13328 | -95.60097 | 32598 ft | 506 kts | 69° |
| 2026-05-08 04:45 | 33.14564 | -95.56223 | 32945 ft | 508 kts | 68° |
| 2026-05-08 04:45 | 33.15826 | -95.52264 | 33260 ft | 512 kts | 68° |
| 2026-05-08 04:46 | 33.17108 | -95.48235 | 33606 ft | 514 kts | 69° |
| 2026-05-08 04:46 | 33.18377 | -95.44243 | 33986 ft | 516 kts | 68° |
| 2026-05-08 04:46 | 33.19636 | -95.40277 | 34322 ft | 518 kts | 68° |
| 2026-05-08 04:46 | 33.20911 | -95.36255 | 34686 ft | 519 kts | 68° |
| 2026-05-08 04:47 | 33.22201 | -95.32182 | 35032 ft | 520 kts | 69° |